createdAt,value
2023-07-24T00:02:00.989Z,1.40
2023-07-24T00:04:28.421Z,1.50
2023-07-24T00:06:55.981Z,1.40
2023-07-24T00:09:23.949Z,1.58
2023-07-24T00:11:51.641Z,1.80
2023-07-24T00:14:19.541Z,1.25
2023-07-24T00:16:47.052Z,1.35
2023-07-24T00:19:14.829Z,1.40
2023-07-24T00:21:42.404Z,1.00
2023-07-24T00:24:10.275Z,1.00
2023-07-24T00:26:37.953Z,1.63
2023-07-24T00:29:05.667Z,1.15
2023-07-24T00:31:33.447Z,1.27
2023-07-24T00:34:01.845Z,1.20
2023-07-24T00:36:29.730Z,1.00
2023-07-24T00:38:57.560Z,1.00
2023-07-24T00:41:25.277Z,1.38
2023-07-24T00:43:55.305Z,1.25
2023-07-24T00:46:23.203Z,1.13
2023-07-24T00:48:51.689Z,1.30
2023-07-24T00:51:19.468Z,1.30
2023-07-24T00:53:48.983Z,1.73
2023-07-24T00:56:16.783Z,1.33
2023-07-24T00:58:44.062Z,1.98
2023-07-24T01:01:12.504Z,1.52
2023-07-24T01:03:40.794Z,1.63
2023-07-24T01:06:08.461Z,2.08
2023-07-24T01:08:36.575Z,2.05
2023-07-24T01:11:31.569Z,1.63
2023-07-24T01:14:18.667Z,1.67
2023-07-24T01:16:48.675Z,2.05
2023-07-24T01:19:42.500Z,1.90
2023-07-24T01:22:28.191Z,1.88
2023-07-24T01:25:20.518Z,2.05
2023-07-24T01:27:48.369Z,2.17
2023-07-24T01:30:19.927Z,1.55
2023-07-24T01:32:48.395Z,2.30
2023-07-24T01:35:17.773Z,1.77
2023-07-24T01:37:47.773Z,1.77
2023-07-24T01:40:15.947Z,2.00
2023-07-24T01:42:43.244Z,2.08
2023-07-24T01:45:10.649Z,1.98
2023-07-24T01:47:37.708Z,2.40
2023-07-24T01:50:05.424Z,2.10
2023-07-24T01:52:32.457Z,2.47
2023-07-24T01:54:59.492Z,2.42
2023-07-24T01:57:26.559Z,2.45
2023-07-24T01:59:53.645Z,2.90
2023-07-24T02:02:20.738Z,2.83
2023-07-24T02:04:48.234Z,2.92
2023-07-24T02:07:15.247Z,2.67
2023-07-24T02:09:42.259Z,2.97
2023-07-24T02:12:09.323Z,3.78
2023-07-24T02:14:36.525Z,2.50
2023-07-24T02:17:03.620Z,2.55
2023-07-24T02:19:30.708Z,2.72
2023-07-24T02:21:57.727Z,2.33
2023-07-24T02:24:24.759Z,3.42
2023-07-24T02:26:51.817Z,2.90
2023-07-24T02:29:18.858Z,3.30
2023-07-24T02:31:45.895Z,2.47
2023-07-24T02:34:12.928Z,2.58
2023-07-24T02:36:42.528Z,3.00
2023-07-24T02:39:09.916Z,2.38
2023-07-24T02:41:37.006Z,3.10
2023-07-24T02:44:05.165Z,2.72
2023-07-24T02:46:32.569Z,3.08
2023-07-24T02:48:59.974Z,3.15
2023-07-24T02:51:27.181Z,2.70
2023-07-24T02:53:56.253Z,2.90
2023-07-24T02:56:23.740Z,3.95
2023-07-24T02:58:50.794Z,3.08
2023-07-24T03:01:17.968Z,2.83
2023-07-24T03:03:45.029Z,2.67
2023-07-24T03:06:12.184Z,3.17
2023-07-24T03:08:39.208Z,3.00
2023-07-24T03:11:07.196Z,3.30
2023-07-24T03:13:34.411Z,3.58
2023-07-24T03:16:01.564Z,3.10
2023-07-24T03:18:28.692Z,2.67
2023-07-24T03:20:58.789Z,2.70
2023-07-24T03:23:25.962Z,3.28
2023-07-24T03:25:53.050Z,3.42
2023-07-24T03:28:20.134Z,3.38
2023-07-24T03:30:47.221Z,3.38
2023-07-24T03:33:14.357Z,3.83
2023-07-24T03:35:41.545Z,3.78
2023-07-24T03:38:09.187Z,3.75
2023-07-24T03:40:36.227Z,3.35
2023-07-24T03:43:05.013Z,3.15
2023-07-24T03:45:32.810Z,3.65
2023-07-24T03:47:59.833Z,4.57
2023-07-24T03:50:26.891Z,3.78
2023-07-24T03:52:53.914Z,4.10
2023-07-24T03:55:21.151Z,4.15
2023-07-24T03:57:48.240Z,3.88
2023-07-24T04:00:15.473Z,4.10
2023-07-24T04:02:42.569Z,4.72
2023-07-24T04:05:09.648Z,4.38
2023-07-24T04:07:38.107Z,4.20
2023-07-24T04:10:05.941Z,3.95
2023-07-24T04:12:32.967Z,5.18
2023-07-24T04:15:00.929Z,4.60
2023-07-24T04:17:28.806Z,4.95
2023-07-24T04:19:56.558Z,4.35
2023-07-24T04:22:23.904Z,4.30
2023-07-24T04:24:51.563Z,4.55
2023-07-24T04:27:19.339Z,5.40
2023-07-24T04:29:46.863Z,5.05
2023-07-24T04:32:14.456Z,5.57
2023-07-24T04:34:42.782Z,4.93
2023-07-24T04:37:10.466Z,5.18
2023-07-24T04:39:40.774Z,6.15
2023-07-24T04:42:11.716Z,5.70
2023-07-24T04:44:39.405Z,5.63
2023-07-24T04:47:06.507Z,5.20
2023-07-24T04:49:34.035Z,4.80
2023-07-24T04:52:01.252Z,4.75
2023-07-24T04:54:29.589Z,5.28
2023-07-24T04:56:56.614Z,4.75
2023-07-24T04:59:24.994Z,5.38
2023-07-24T05:01:52.041Z,5.10
2023-07-24T05:04:19.155Z,4.80
2023-07-24T05:06:46.173Z,5.03
2023-07-24T05:09:13.160Z,5.00
2023-07-24T05:11:40.695Z,4.95
2023-07-24T05:14:07.769Z,5.20
2023-07-24T05:16:35.222Z,5.35
2023-07-24T05:19:02.276Z,4.47
2023-07-24T05:21:29.495Z,5.30
2023-07-24T05:23:56.512Z,5.90
2023-07-24T05:26:23.579Z,5.32
2023-07-24T05:28:50.645Z,5.88
2023-07-24T05:31:17.753Z,4.90
2023-07-24T05:33:44.803Z,5.28
2023-07-24T05:36:11.868Z,4.97
2023-07-24T05:38:38.889Z,5.78
2023-07-24T05:41:06.086Z,6.18
2023-07-24T05:43:33.724Z,6.30
2023-07-24T05:46:02.204Z,5.53
2023-07-24T05:48:29.239Z,6.35
2023-07-24T05:50:56.308Z,5.97
2023-07-24T05:53:23.310Z,6.38
2023-07-24T05:56:01.329Z,5.55
2023-07-24T05:58:29.217Z,6.30
2023-07-24T06:00:56.503Z,5.43
2023-07-24T06:03:25.057Z,6.30
2023-07-24T06:05:54.846Z,5.30
2023-07-24T06:08:22.989Z,5.78
2023-07-24T06:10:51.280Z,6.05
2023-07-24T06:13:19.874Z,5.85
2023-07-24T06:15:51.281Z,5.90
2023-07-24T06:18:18.394Z,5.95
2023-07-24T06:20:45.399Z,6.95
2023-07-24T06:23:12.446Z,6.63
2023-07-24T06:25:39.533Z,6.35
2023-07-24T06:28:06.593Z,6.35
2023-07-24T06:30:33.637Z,5.72
2023-07-24T06:33:00.845Z,5.05
2023-07-24T06:35:27.885Z,5.78
2023-07-24T06:37:54.903Z,5.72
2023-07-24T06:40:21.896Z,5.47
2023-07-24T06:42:48.950Z,5.63
2023-07-24T06:45:15.978Z,6.00
2023-07-24T06:47:43.149Z,6.00
2023-07-24T06:50:10.582Z,5.45
2023-07-24T06:52:37.669Z,5.70
2023-07-24T06:55:05.390Z,5.72
2023-07-24T06:57:32.344Z,6.35
2023-07-24T06:59:59.342Z,5.20
2023-07-24T07:02:26.571Z,6.00
2023-07-24T07:04:53.732Z,5.63
2023-07-24T07:07:21.200Z,4.18
2023-07-24T07:09:48.749Z,5.43
2023-07-24T07:12:16.026Z,4.78
2023-07-24T07:14:43.659Z,4.45
2023-07-24T07:17:11.001Z,4.05
2023-07-24T07:19:38.787Z,4.70
2023-07-24T07:22:06.942Z,4.72
2023-07-24T07:24:34.637Z,3.80
2023-07-24T07:27:02.124Z,3.75
2023-07-24T07:29:29.746Z,3.67
2023-07-24T07:31:57.131Z,3.78
2023-07-24T07:34:24.528Z,3.97
2023-07-24T07:36:52.146Z,3.63
2023-07-24T07:39:19.414Z,3.83
2023-07-24T07:41:46.854Z,3.25
2023-07-24T07:44:14.281Z,3.40
2023-07-24T07:46:41.908Z,3.75
2023-07-24T07:49:09.936Z,3.90
2023-07-24T07:51:37.462Z,4.00
2023-07-24T07:54:05.111Z,3.70
2023-07-24T07:56:33.213Z,3.67
2023-07-24T07:59:00.625Z,4.13
2023-07-24T08:01:28.621Z,4.00
2023-07-24T08:03:56.160Z,4.10
2023-07-24T08:06:24.073Z,3.72
2023-07-24T08:08:52.096Z,4.18
2023-07-24T08:11:19.830Z,4.30
2023-07-24T08:13:47.117Z,3.42
2023-07-24T08:16:20.882Z,3.65
2023-07-24T08:18:49.448Z,3.80
2023-07-24T08:21:17.155Z,4.05
2023-07-24T08:23:47.666Z,3.63
2023-07-24T08:26:15.079Z,4.03
2023-07-24T08:28:43.632Z,4.80
2023-07-24T08:31:11.225Z,5.57
2023-07-24T08:33:38.739Z,4.38
2023-07-24T08:36:09.351Z,4.38
2023-07-24T08:38:37.304Z,5.22
2023-07-24T08:41:08.282Z,4.75
2023-07-24T08:43:37.955Z,5.18
2023-07-24T08:46:06.784Z,5.03
2023-07-24T08:48:39.392Z,4.82
2023-07-24T08:51:14.568Z,5.18
2023-07-24T08:53:45.504Z,4.85
2023-07-24T08:56:14.699Z,5.00
2023-07-24T08:58:42.327Z,4.47
2023-07-24T09:01:10.412Z,4.90
2023-07-24T09:03:38.515Z,4.32
2023-07-24T09:06:09.091Z,5.25
2023-07-24T09:08:42.729Z,4.70
2023-07-24T09:11:12.284Z,4.18
2023-07-24T09:13:44.126Z,4.55
2023-07-24T09:16:26.366Z,4.25
2023-07-24T09:21:32.379Z,3.90
2023-07-24T09:24:14.445Z,3.78
2023-07-24T09:26:52.990Z,4.47
2023-07-24T09:29:33.578Z,4.43
2023-07-24T09:32:01.482Z,4.68
2023-07-24T09:34:29.346Z,4.00
2023-07-24T09:36:57.080Z,4.50
2023-07-24T09:39:29.956Z,4.45
2023-07-24T09:42:05.836Z,4.20
2023-07-24T09:44:34.088Z,3.40
2023-07-24T09:47:26.048Z,4.10
2023-07-24T09:49:50.467Z,4.25
2023-07-24T09:52:20.731Z,4.20
2023-07-24T09:55:12.387Z,3.22
2023-07-24T09:57:40.686Z,3.67
2023-07-24T10:00:09.220Z,3.25
2023-07-24T10:02:37.721Z,3.45
2023-07-24T10:05:06.258Z,3.47
2023-07-24T10:07:34.017Z,4.13
2023-07-24T10:10:03.113Z,3.00
2023-07-24T10:12:32.569Z,3.58
2023-07-24T10:15:01.082Z,2.97
2023-07-24T10:17:39.914Z,4.28
2023-07-24T10:20:13.282Z,3.88
2023-07-24T10:22:44.600Z,3.70
2023-07-24T10:25:12.878Z,3.72
2023-07-24T10:27:45.806Z,4.40
2023-07-24T10:30:27.496Z,4.45
2023-07-24T10:33:20.654Z,3.88
2023-07-24T10:36:09.940Z,4.38
2023-07-24T10:38:40.966Z,4.70
2023-07-24T10:41:11.392Z,4.00
2023-07-24T10:43:48.696Z,3.80
2023-07-24T10:46:20.424Z,3.67
2023-07-24T10:48:52.914Z,3.08
2023-07-24T10:51:20.583Z,3.08
2023-07-24T10:53:50.443Z,3.45
2023-07-24T10:56:18.740Z,3.53
2023-07-24T10:58:46.349Z,3.95
2023-07-24T11:01:15.508Z,3.75
2023-07-24T11:03:44.161Z,4.35
2023-07-24T11:06:18.257Z,4.28
2023-07-24T11:08:58.822Z,4.20
2023-07-24T11:11:34.621Z,3.55
2023-07-24T11:14:04.143Z,4.30
2023-07-24T11:16:34.812Z,3.80
2023-07-24T11:19:03.226Z,4.03
2023-07-24T11:21:31.670Z,4.10
2023-07-24T11:23:59.916Z,3.75
2023-07-24T11:26:29.365Z,3.42
2023-07-24T11:28:57.638Z,3.10
2023-07-24T11:31:25.761Z,4.07
2023-07-24T11:33:54.830Z,4.00
2023-07-24T11:36:24.350Z,4.18
2023-07-24T11:38:51.855Z,3.80
2023-07-24T11:41:19.510Z,4.20
2023-07-24T11:43:49.218Z,4.78
2023-07-24T11:46:28.376Z,4.15
2023-07-24T11:48:58.826Z,4.82
2023-07-24T11:51:29.216Z,4.63
2023-07-24T11:54:13.577Z,4.95
2023-07-24T11:56:41.639Z,5.53
2023-07-24T11:59:16.266Z,5.55
2023-07-24T12:01:50.129Z,4.75
2023-07-24T12:04:18.856Z,5.45
2023-07-24T12:06:46.868Z,4.65
2023-07-24T12:09:15.220Z,5.30
2023-07-24T12:11:45.913Z,5.57
2023-07-24T12:14:16.525Z,4.57
2023-07-24T12:16:44.316Z,4.88
2023-07-24T12:19:12.100Z,5.80
2023-07-24T12:21:39.613Z,4.88
2023-07-24T12:24:07.174Z,4.00
2023-07-24T12:26:34.949Z,4.90
2023-07-24T12:29:02.528Z,5.45
2023-07-24T12:31:30.622Z,4.68
2023-07-24T12:33:58.616Z,4.80
2023-07-24T12:36:26.319Z,4.63
2023-07-24T12:38:55.215Z,4.20
2023-07-24T12:41:22.671Z,3.75
2023-07-24T12:43:50.201Z,4.10
2023-07-24T12:46:17.890Z,4.03
2023-07-24T12:48:45.601Z,4.60
2023-07-24T12:51:13.153Z,4.05
2023-07-24T12:53:47.379Z,5.65
2023-07-24T12:56:28.427Z,5.05
2023-07-24T12:58:55.929Z,5.03
2023-07-24T13:01:23.592Z,4.35
2023-07-24T13:03:51.181Z,4.22
2023-07-24T13:06:18.998Z,4.22
2023-07-24T13:08:46.878Z,4.28
2023-07-24T13:11:14.116Z,3.55
2023-07-24T13:13:41.395Z,4.78
2023-07-24T13:16:09.086Z,4.35
2023-07-24T13:18:36.473Z,3.10
2023-07-24T13:21:03.856Z,3.15
2023-07-24T13:23:31.075Z,3.05
2023-07-24T13:25:58.230Z,2.75
2023-07-24T13:28:25.634Z,2.50
2023-07-24T13:30:53.042Z,2.65
2023-07-24T13:33:20.479Z,2.50
2023-07-24T13:35:47.740Z,3.33
2023-07-24T13:38:15.741Z,3.28
2023-07-24T13:40:42.988Z,2.88
2023-07-24T13:43:10.327Z,2.88
2023-07-24T13:45:37.560Z,2.38
2023-07-24T13:48:05.485Z,2.47
2023-07-24T13:50:33.133Z,2.42
2023-07-24T13:53:00.532Z,2.53
2023-07-24T13:55:28.045Z,2.60
2023-07-24T13:57:55.593Z,2.53
2023-07-24T14:00:22.932Z,2.58
2023-07-24T14:02:51.451Z,2.22
2023-07-24T14:05:19.437Z,2.70
2023-07-24T14:07:47.224Z,2.25
2023-07-24T14:10:14.669Z,2.17
2023-07-24T14:12:42.168Z,2.53
2023-07-24T14:15:10.436Z,2.35
2023-07-24T14:17:38.007Z,2.85
2023-07-24T14:20:06.651Z,2.92
2023-07-24T14:22:34.377Z,2.33
2023-07-24T14:25:01.981Z,1.88
2023-07-24T14:27:29.530Z,1.63
2023-07-24T14:29:56.693Z,1.10
2023-07-24T14:32:24.462Z,1.63
2023-07-24T14:34:54.048Z,1.90
2023-07-24T14:37:22.432Z,2.17
2023-07-24T14:39:51.973Z,1.95
2023-07-24T14:42:19.612Z,2.20
2023-07-24T14:44:47.043Z,2.67
2023-07-24T14:47:14.937Z,2.85
2023-07-24T14:49:42.208Z,2.22
2023-07-24T14:52:09.935Z,2.05
2023-07-24T14:54:39.736Z,2.50
2023-07-24T14:57:19.379Z,2.10
2023-07-24T14:59:52.048Z,2.70
2023-07-24T15:02:19.993Z,2.88
2023-07-24T15:04:47.764Z,3.13
2023-07-24T15:07:15.270Z,3.25
2023-07-24T15:09:43.661Z,2.65
2023-07-24T15:12:11.153Z,3.45
2023-07-24T15:14:38.744Z,3.13
2023-07-24T15:17:06.261Z,3.42
2023-07-24T15:19:33.807Z,3.85
2023-07-24T15:22:01.060Z,3.70
2023-07-24T15:24:28.493Z,3.30
2023-07-24T15:26:55.778Z,3.40
2023-07-24T15:29:23.339Z,3.70
2023-07-24T15:31:50.723Z,3.67
2023-07-24T15:34:18.077Z,5.45
2023-07-24T15:36:46.089Z,4.57
2023-07-24T15:39:13.786Z,4.63
2023-07-24T15:41:41.358Z,3.58
2023-07-24T15:44:09.105Z,1.70
2023-07-24T15:46:37.150Z,2.65
2023-07-24T15:49:04.987Z,2.50
2023-07-24T15:51:33.238Z,3.95
2023-07-24T15:54:01.490Z,2.50
2023-07-24T15:56:28.900Z,1.38
2023-07-24T15:58:56.348Z,1.90
2023-07-24T16:01:23.806Z,2.28
2023-07-24T16:03:51.250Z,3.08
2023-07-24T16:06:18.698Z,2.30
2023-07-24T16:08:46.356Z,2.13
2023-07-24T16:11:14.106Z,1.90
2023-07-24T16:13:43.599Z,1.98
2023-07-24T16:16:11.004Z,2.20
2023-07-24T16:18:38.613Z,1.50
2023-07-24T16:21:06.215Z,2.00
2023-07-24T16:23:33.542Z,1.70
2023-07-24T16:26:00.804Z,1.80
2023-07-24T16:28:28.378Z,2.28
2023-07-24T16:30:59.131Z,1.65
2023-07-24T16:33:26.774Z,1.10
2023-07-24T16:35:55.178Z,1.35
2023-07-24T16:38:23.555Z,1.00
2023-07-24T16:40:52.588Z,1.15
2023-07-24T16:43:20.182Z,1.40
2023-07-24T16:48:21.109Z,1.20
2023-07-24T16:50:48.722Z,0.80
2023-07-24T16:53:16.756Z,1.00
2023-07-24T16:55:44.306Z,1.00
2023-07-24T16:58:11.613Z,1.15
2023-07-24T17:00:39.099Z,0.98
2023-07-24T17:03:06.583Z,0.77
2023-07-24T17:05:33.995Z,0.80
2023-07-24T17:08:01.445Z,1.05
2023-07-24T17:10:42.771Z,1.10
2023-07-24T17:13:10.190Z,0.88
2023-07-24T17:15:37.586Z,0.80
2023-07-24T17:18:06.420Z,1.10
2023-07-24T17:20:33.895Z,0.90
2023-07-24T17:23:01.569Z,0.82
2023-07-24T17:25:29.129Z,1.20
2023-07-24T17:27:56.659Z,0.80
2023-07-24T17:30:24.183Z,1.00
2023-07-24T17:32:51.609Z,0.82
2023-07-24T17:35:19.192Z,0.95
2023-07-24T17:37:46.655Z,0.70
2023-07-24T17:40:14.009Z,1.08
2023-07-24T17:42:41.439Z,1.02
2023-07-24T17:45:09.283Z,1.10
2023-07-24T17:47:36.679Z,0.70
2023-07-24T17:50:08.328Z,1.17
2023-07-24T17:52:37.461Z,1.00
2023-07-24T17:55:06.100Z,1.15
2023-07-24T17:57:34.724Z,0.80
2023-07-24T18:00:02.443Z,0.85
2023-07-24T18:02:32.734Z,0.90
2023-07-24T18:05:00.398Z,0.70
2023-07-24T18:07:27.857Z,0.60
2023-07-24T18:09:55.459Z,0.77
2023-07-24T18:12:23.466Z,1.05
2023-07-24T18:14:51.145Z,0.85
2023-07-24T18:17:18.687Z,0.60
2023-07-24T18:19:48.044Z,0.85
2023-07-24T18:22:17.160Z,0.75
2023-07-24T18:24:44.979Z,0.65
2023-07-24T18:27:12.707Z,0.50
2023-07-24T18:29:40.278Z,0.52
2023-07-24T18:32:08.820Z,0.50
2023-07-24T18:34:36.449Z,0.57
2023-07-24T18:37:04.234Z,0.70
2023-07-24T18:39:31.620Z,0.45
2023-07-24T18:41:59.156Z,0.50
2023-07-24T18:44:26.746Z,1.33
2023-07-24T18:46:54.126Z,0.80
2023-07-24T18:49:24.061Z,0.73
2023-07-24T18:51:53.208Z,0.80
2023-07-24T18:54:22.369Z,1.00
2023-07-24T18:56:49.901Z,1.13
2023-07-24T18:59:17.436Z,0.95
2023-07-24T19:01:44.974Z,1.70
2023-07-24T19:04:12.611Z,0.70
2023-07-24T19:06:40.043Z,0.80
2023-07-24T19:09:07.564Z,0.65
2023-07-24T19:11:35.377Z,0.63
2023-07-24T19:14:03.098Z,1.17
2023-07-24T19:16:30.765Z,0.80
2023-07-24T19:18:59.376Z,0.63
2023-07-24T19:21:27.519Z,1.33
2023-07-24T19:23:54.971Z,1.00
2023-07-24T19:26:22.501Z,0.90
2023-07-24T19:28:49.871Z,0.70
2023-07-24T19:31:17.254Z,0.70
2023-07-24T19:33:44.943Z,1.13
2023-07-24T19:36:12.242Z,0.80
2023-07-24T19:38:39.853Z,0.60
2023-07-24T19:41:07.344Z,1.13
2023-07-24T19:43:35.130Z,1.05
2023-07-24T19:46:09.167Z,0.70
2023-07-24T19:48:37.247Z,0.90
2023-07-24T19:51:04.764Z,0.60
2023-07-24T19:53:32.741Z,0.80
2023-07-24T19:56:00.260Z,1.20
2023-07-24T19:58:33.992Z,0.80
2023-07-24T20:01:02.391Z,1.35
2023-07-24T20:03:30.575Z,0.77
2023-07-24T20:06:06.982Z,1.23
2023-07-24T20:08:36.489Z,0.90
2023-07-24T20:11:08.664Z,1.20
2023-07-24T20:13:36.918Z,0.90
2023-07-24T20:16:04.928Z,1.17
2023-07-24T20:18:32.311Z,1.30
2023-07-24T20:20:59.774Z,1.00
2023-07-24T20:23:27.285Z,1.02
2023-07-24T20:25:54.771Z,1.05
2023-07-24T20:28:22.328Z,1.33
2023-07-24T20:30:49.883Z,1.35
2023-07-24T20:33:17.362Z,1.95
2023-07-24T20:35:46.427Z,1.58
2023-07-24T20:38:30.668Z,1.30
2023-07-24T20:41:02.173Z,0.98
2023-07-24T20:43:30.827Z,1.13
2023-07-24T20:45:58.403Z,1.52
2023-07-24T20:48:27.639Z,1.17
2023-07-24T20:50:54.963Z,1.10
2023-07-24T20:53:22.224Z,1.60
2023-07-24T20:55:49.709Z,2.13
2023-07-24T20:58:17.194Z,1.83
2023-07-24T21:00:44.628Z,1.65
2023-07-24T21:03:12.114Z,1.90
2023-07-24T21:05:39.700Z,1.70
2023-07-24T21:08:08.057Z,1.85
2023-07-24T21:10:35.382Z,2.85
2023-07-24T21:13:02.714Z,1.70
2023-07-24T21:15:30.293Z,1.98
2023-07-24T21:17:57.854Z,2.53
2023-07-24T21:20:25.470Z,1.75
2023-07-24T21:22:53.188Z,1.83
2023-07-24T21:25:20.673Z,1.65
2023-07-24T21:27:48.145Z,1.38
2023-07-24T21:30:15.818Z,1.25
2023-07-24T21:32:43.505Z,1.55
2023-07-24T21:35:11.048Z,1.70
2023-07-24T21:37:40.233Z,1.73
2023-07-24T21:40:09.375Z,1.73
2023-07-24T21:42:36.505Z,1.55
2023-07-24T21:45:04.099Z,1.85
2023-07-24T21:47:31.169Z,1.65
2023-07-24T21:49:58.300Z,1.60
2023-07-24T21:52:25.247Z,1.10
2023-07-24T21:54:52.280Z,1.30
2023-07-24T21:57:21.461Z,1.90
2023-07-24T21:59:49.686Z,1.48
2023-07-24T22:02:16.735Z,1.60
2023-07-24T22:04:43.747Z,1.83
2023-07-24T22:07:11.272Z,1.33
2023-07-24T22:09:38.252Z,1.40
2023-07-24T22:12:05.881Z,1.30
2023-07-24T22:14:32.917Z,1.70
2023-07-24T22:16:59.934Z,1.40
2023-07-24T22:19:26.943Z,1.27
2023-07-24T22:21:53.960Z,1.65
2023-07-24T22:24:21.043Z,2.03
2023-07-24T22:26:48.093Z,2.03
2023-07-24T22:29:15.123Z,1.40
2023-07-24T22:31:42.134Z,1.30
2023-07-24T22:34:11.422Z,1.33
2023-07-24T22:36:39.567Z,1.70
2023-07-24T22:39:07.439Z,2.20
2023-07-24T22:41:34.480Z,1.33
2023-07-24T22:44:01.467Z,1.42
2023-07-24T22:46:28.580Z,1.85
2023-07-24T22:48:55.676Z,1.58
2023-07-24T22:51:22.738Z,1.42
2023-07-24T22:53:49.908Z,1.48
2023-07-24T22:56:16.935Z,1.60
2023-07-24T22:59:03.048Z,1.52
2023-07-24T23:01:32.891Z,1.40
2023-07-24T23:04:00.260Z,1.35
2023-07-24T23:06:27.276Z,1.40
2023-07-24T23:08:54.237Z,1.45
2023-07-24T23:11:21.236Z,1.10
2023-07-24T23:13:48.188Z,1.40
2023-07-24T23:16:15.240Z,1.55
2023-07-24T23:18:42.617Z,1.50
2023-07-24T23:21:09.714Z,1.60
2023-07-24T23:23:36.744Z,1.80
2023-07-24T23:26:04.636Z,1.35
2023-07-24T23:28:31.800Z,1.42
2023-07-24T23:31:02.021Z,1.38
2023-07-24T23:33:29.013Z,1.83
2023-07-24T23:35:56.035Z,1.40
2023-07-24T23:38:23.040Z,1.58
2023-07-24T23:41:01.097Z,1.65
2023-07-24T23:43:28.205Z,1.30
2023-07-24T23:45:55.595Z,2.45
2023-07-24T23:48:23.705Z,1.52
2023-07-24T23:50:52.302Z,1.52
2023-07-24T23:53:20.317Z,1.38
2023-07-24T23:55:47.372Z,2.20
2023-07-24T23:58:14.436Z,1.88
